createdAt,value
2019-02-05T00:00:55.576Z,1013.73
2019-02-05T00:01:55.503Z,1013.75
2019-02-05T00:02:55.514Z,1013.70
2019-02-05T00:03:55.518Z,1013.64
2019-02-05T00:04:55.584Z,1013.66
2019-02-05T00:05:55.593Z,1013.67
2019-02-05T00:06:55.546Z,1013.68
2019-02-05T00:07:55.525Z,1013.59
2019-02-05T00:08:55.588Z,1013.60
2019-02-05T00:09:55.620Z,1013.62
2019-02-05T00:10:55.488Z,1013.59
2019-02-05T00:11:55.592Z,1013.57
2019-02-05T00:12:55.578Z,1013.61
2019-02-05T00:13:55.596Z,1013.65
2019-02-05T00:15:55.599Z,1013.72
2019-02-05T00:16:55.531Z,1013.80
2019-02-05T00:17:55.604Z,1013.88
2019-02-05T00:18:55.532Z,1013.89
2019-02-05T00:19:55.539Z,1013.91
2019-02-05T00:20:55.605Z,1013.95
2019-02-05T00:21:55.529Z,1013.98
2019-02-05T00:22:55.609Z,1013.90
2019-02-05T00:23:55.602Z,1013.82
2019-02-05T00:24:55.532Z,1013.77
2019-02-05T00:26:05.674Z,1013.71
2019-02-05T00:26:55.609Z,1013.70
2019-02-05T00:27:55.692Z,1013.78
2019-02-05T00:28:55.535Z,1013.70
2019-02-05T00:29:55.609Z,1013.72
2019-02-05T00:30:55.555Z,1013.70
2019-02-05T00:31:55.625Z,1013.68
2019-02-05T00:32:55.539Z,1013.65
2019-02-05T00:33:55.541Z,1013.71
2019-02-05T00:34:55.537Z,1013.67
2019-02-05T00:35:55.612Z,1013.71
2019-02-05T00:36:55.612Z,1013.76
2019-02-05T00:37:55.538Z,1013.79
2019-02-05T00:38:55.579Z,1013.78
2019-02-05T00:39:55.542Z,1013.75
2019-02-05T00:40:55.558Z,1013.79
2019-02-05T00:41:55.612Z,1013.76
2019-02-05T00:42:55.619Z,1013.78
2019-02-05T00:43:55.547Z,1013.83
2019-02-05T00:44:55.618Z,1013.76
2019-02-05T00:45:55.548Z,1013.82
2019-02-05T00:46:55.550Z,1013.81
2019-02-05T00:47:55.625Z,1013.82
2019-02-05T00:48:55.568Z,1013.84
2019-02-05T00:49:55.620Z,1013.90
2019-02-05T00:50:55.639Z,1013.91
2019-02-05T00:51:55.563Z,1013.84
2019-02-05T00:52:55.608Z,1013.84
2019-02-05T00:53:55.565Z,1013.82
2019-02-05T00:54:55.480Z,1013.78
2019-02-05T00:55:55.501Z,1013.81
2019-02-05T00:56:55.527Z,1013.87
2019-02-05T00:57:55.486Z,1013.81
2019-02-05T00:58:55.544Z,1013.83
2019-02-05T00:59:55.490Z,1013.78
2019-02-05T01:00:55.507Z,1013.81
2019-02-05T01:01:55.602Z,1013.82
2019-02-05T01:02:55.482Z,1013.73
2019-02-05T01:03:55.560Z,1013.70
2019-02-05T01:04:55.630Z,1013.70
2019-02-05T01:05:55.566Z,1013.70
2019-02-05T01:06:55.639Z,1013.69
2019-02-05T01:07:55.560Z,1013.68
2019-02-05T01:08:55.603Z,1013.67
2019-02-05T01:09:55.641Z,1013.67
2019-02-05T01:10:55.563Z,1013.64
2019-02-05T01:11:55.569Z,1013.67
2019-02-05T01:12:55.523Z,1013.71
2019-02-05T01:13:55.618Z,1013.73
2019-02-05T01:14:55.553Z,1013.72
2019-02-05T01:15:55.571Z,1013.80
2019-02-05T01:16:55.500Z,1013.75
2019-02-05T01:17:55.506Z,1013.78
2019-02-05T01:18:55.508Z,1013.77
2019-02-05T01:19:55.557Z,1013.77
2019-02-05T01:20:55.616Z,1013.75
2019-02-05T01:21:55.630Z,1013.76
2019-02-05T01:22:55.595Z,1013.77
2019-02-05T01:23:55.576Z,1013.79
2019-02-05T01:24:55.525Z,1013.83
2019-02-05T01:25:55.563Z,1013.84
2019-02-05T01:26:55.562Z,1013.87
2019-02-05T01:27:55.637Z,1013.87
2019-02-05T01:28:55.635Z,1013.86
2019-02-05T01:29:55.563Z,1013.87
2019-02-05T01:30:55.565Z,1013.81
2019-02-05T01:31:55.572Z,1013.84
2019-02-05T01:32:55.652Z,1013.83
2019-02-05T01:33:55.521Z,1013.77
2019-02-05T01:34:55.530Z,1013.79
2019-02-05T01:35:55.598Z,1013.77
2019-02-05T01:36:55.550Z,1013.81
2019-02-05T01:37:55.520Z,1013.82
2019-02-05T01:38:55.599Z,1013.76
2019-02-05T01:39:55.629Z,1013.86
2019-02-05T01:40:55.480Z,1013.79
2019-02-05T01:41:55.575Z,1013.81
2019-02-05T01:42:55.527Z,1013.80
2019-02-05T01:43:55.657Z,1013.76
2019-02-05T01:44:55.603Z,1013.77
2019-02-05T01:45:55.667Z,1013.78
2019-02-05T01:46:55.661Z,1013.80
2019-02-05T01:47:55.607Z,1013.79
2019-02-05T01:48:55.658Z,1013.84
2019-02-05T01:49:55.616Z,1013.90
2019-02-05T01:50:55.627Z,1013.83
2019-02-05T01:51:55.664Z,1013.85
2019-02-05T01:52:55.604Z,1013.81
2019-02-05T01:53:55.660Z,1013.77
2019-02-05T01:54:55.585Z,1013.76
2019-02-05T01:55:55.658Z,1013.81
2019-02-05T01:56:55.656Z,1013.81
2019-02-05T01:57:55.765Z,1013.76
2019-02-05T01:58:55.658Z,1013.78
2019-02-05T01:59:55.570Z,1013.80
2019-02-05T02:00:55.584Z,1013.79
2019-02-05T02:01:55.661Z,1013.77
2019-02-05T02:02:55.668Z,1013.76
2019-02-05T02:03:55.648Z,1013.79
2019-02-05T02:04:55.593Z,1013.80
2019-02-05T02:05:55.637Z,1013.77
2019-02-05T02:06:55.623Z,1013.74
2019-02-05T02:07:55.603Z,1013.78
2019-02-05T02:08:55.687Z,1013.75
2019-02-05T02:09:55.625Z,1013.75
2019-02-05T02:10:55.647Z,1013.71
2019-02-05T02:11:55.533Z,1013.76
2019-02-05T02:12:55.600Z,1013.77
2019-02-05T02:13:55.670Z,1013.81
2019-02-05T02:14:55.672Z,1013.85
2019-02-05T02:15:55.582Z,1013.83
2019-02-05T02:16:55.672Z,1013.89
2019-02-05T02:17:55.670Z,1013.86
2019-02-05T02:18:55.609Z,1013.84
2019-02-05T02:19:55.615Z,1013.81
2019-02-05T02:20:55.583Z,1013.80
2019-02-05T02:21:55.603Z,1013.84
2019-02-05T02:22:55.552Z,1013.74
2019-02-05T02:23:55.614Z,1013.76
2019-02-05T02:24:55.616Z,1013.73
2019-02-05T02:25:55.690Z,1013.72
2019-02-05T02:26:55.631Z,1013.78
2019-02-05T02:27:55.725Z,1013.79
2019-02-05T02:28:55.629Z,1013.85
2019-02-05T02:29:55.788Z,1013.84
2019-02-05T02:30:55.621Z,1013.84
2019-02-05T02:31:55.679Z,1013.81
2019-02-05T02:32:55.621Z,1013.85
2019-02-05T02:33:55.684Z,1013.85
2019-02-05T02:34:55.693Z,1013.85
2019-02-05T02:35:55.696Z,1013.85
2019-02-05T02:36:55.684Z,1013.91
2019-02-05T02:37:55.598Z,1013.83
2019-02-05T02:38:55.685Z,1013.80
2019-02-05T02:39:55.618Z,1013.77
2019-02-05T02:40:55.630Z,1013.74
2019-02-05T02:41:55.600Z,1013.72
2019-02-05T02:42:55.698Z,1013.72
2019-02-05T02:43:55.519Z,1013.77
2019-02-05T02:44:55.576Z,1013.82
2019-02-05T02:45:55.620Z,1013.77
2019-02-05T02:46:55.664Z,1013.81
2019-02-05T02:47:55.628Z,1013.89
2019-02-05T02:48:55.645Z,1013.84
2019-02-05T02:49:55.645Z,1013.89
2019-02-05T02:50:55.571Z,1013.97
2019-02-05T02:51:55.578Z,1013.95
2019-02-05T02:52:55.581Z,1013.89
2019-02-05T02:53:55.713Z,1013.88
2019-02-05T02:54:55.636Z,1013.91
2019-02-05T02:55:55.637Z,1013.88
2019-02-05T02:57:04.600Z,1013.92
2019-02-05T02:57:55.665Z,1013.92
2019-02-05T02:58:55.644Z,1013.89
2019-02-05T02:59:55.751Z,1013.88
2019-02-05T03:00:55.691Z,1013.84
2019-02-05T03:01:55.675Z,1013.81
2019-02-05T03:02:55.655Z,1013.84
2019-02-05T03:03:55.708Z,1013.83
2019-02-05T03:04:55.636Z,1013.82
2019-02-05T03:05:55.682Z,1013.85
2019-02-05T03:06:55.709Z,1013.85
2019-02-05T03:07:55.631Z,1013.86
2019-02-05T03:08:55.715Z,1013.83
2019-02-05T03:09:55.642Z,1013.87
2019-02-05T03:10:55.714Z,1013.91
2019-02-05T03:11:55.710Z,1013.89
2019-02-05T03:12:55.637Z,1013.85
2019-02-05T03:13:55.650Z,1013.88
2019-02-05T03:14:55.724Z,1013.86
2019-02-05T03:15:55.650Z,1013.83
2019-02-05T03:16:55.724Z,1013.79
2019-02-05T03:17:55.724Z,1013.76
2019-02-05T03:18:55.736Z,1013.79
2019-02-05T03:19:55.654Z,1013.82
2019-02-05T03:20:55.722Z,1013.83
2019-02-05T03:21:55.699Z,1013.85
2019-02-05T03:22:55.735Z,1013.83
2019-02-05T03:23:55.642Z,1013.91
2019-02-05T03:24:55.718Z,1013.90
2019-02-05T03:25:55.732Z,1013.89
2019-02-05T03:26:55.650Z,1013.92
2019-02-05T03:27:55.722Z,1013.94
2019-02-05T03:28:55.654Z,1013.94
2019-02-05T03:29:55.648Z,1013.96
2019-02-05T03:30:55.734Z,1013.94
2019-02-05T03:31:55.662Z,1013.96
2019-02-05T03:32:55.790Z,1013.95
2019-02-05T03:33:55.727Z,1013.94
2019-02-05T03:34:55.697Z,1013.93
2019-02-05T03:35:55.628Z,1013.94
2019-02-05T03:36:55.671Z,1013.93
2019-02-05T03:37:55.725Z,1013.91
2019-02-05T03:38:55.681Z,1013.86
2019-02-05T03:39:55.604Z,1013.82
2019-02-05T03:40:55.769Z,1013.85
2019-02-05T03:41:55.634Z,1013.88
2019-02-05T03:42:55.639Z,1013.88
2019-02-05T03:43:55.669Z,1013.89
2019-02-05T03:44:55.777Z,1013.94
2019-02-05T03:45:55.736Z,1013.93
2019-02-05T03:46:55.664Z,1013.98
2019-02-05T03:47:55.736Z,1013.96
2019-02-05T03:48:55.673Z,1013.97
2019-02-05T03:49:55.743Z,1014.01
2019-02-05T03:50:55.659Z,1014.00
2019-02-05T03:51:55.669Z,1013.98
2019-02-05T03:52:55.737Z,1013.98
2019-02-05T03:53:55.621Z,1014.00
2019-02-05T03:54:55.652Z,1013.93
2019-02-05T03:55:55.679Z,1013.94
2019-02-05T03:56:55.750Z,1013.92
2019-02-05T03:57:55.725Z,1013.90
2019-02-05T03:58:55.689Z,1013.95
2019-02-05T03:59:55.733Z,1013.97
2019-02-05T04:00:55.683Z,1013.98
2019-02-05T04:01:55.670Z,1013.99
2019-02-05T04:02:55.729Z,1014.00
2019-02-05T04:03:55.757Z,1013.96
2019-02-05T04:04:55.760Z,1013.94
2019-02-05T04:05:55.687Z,1013.91
2019-02-05T04:06:55.784Z,1013.95
2019-02-05T04:07:55.760Z,1013.92
2019-02-05T04:08:55.692Z,1013.90
2019-02-05T04:09:55.820Z,1013.89
2019-02-05T04:10:55.688Z,1013.86
2019-02-05T04:11:55.785Z,1013.85
2019-02-05T04:12:55.768Z,1013.85
2019-02-05T04:13:55.773Z,1013.84
2019-02-05T04:14:55.782Z,1013.86
2019-02-05T04:15:55.700Z,1013.90
2019-02-05T04:16:55.692Z,1013.90
2019-02-05T04:17:55.770Z,1013.88
2019-02-05T04:18:55.697Z,1013.90
2019-02-05T04:19:55.713Z,1013.88
2019-02-05T04:20:55.771Z,1013.89
2019-02-05T04:21:55.768Z,1013.85
2019-02-05T04:22:55.703Z,1013.86
2019-02-05T04:23:55.771Z,1013.86
2019-02-05T04:24:55.704Z,1013.85
2019-02-05T04:25:55.771Z,1013.87
2019-02-05T04:26:55.700Z,1013.88
2019-02-05T04:27:55.776Z,1013.88
2019-02-05T04:28:55.774Z,1013.93
2019-02-05T04:29:55.786Z,1013.92
2019-02-05T04:30:55.703Z,1013.90
2019-02-05T04:31:55.776Z,1013.90
2019-02-05T04:32:55.774Z,1013.90
2019-02-05T04:33:55.677Z,1013.92
2019-02-05T04:34:55.854Z,1013.89
2019-02-05T04:35:55.751Z,1013.87
2019-02-05T04:36:57.569Z,1013.86
2019-02-05T04:37:55.674Z,1013.91
2019-02-05T04:38:55.739Z,1013.93
2019-02-05T04:39:55.779Z,1013.97
2019-02-05T04:40:55.696Z,1013.94
2019-02-05T04:41:55.644Z,1013.92
2019-02-05T04:42:55.774Z,1013.90
2019-02-05T04:43:55.809Z,1013.93
2019-02-05T04:44:55.789Z,1013.90
2019-02-05T04:45:55.713Z,1013.94
2019-02-05T04:46:55.787Z,1013.89
2019-02-05T04:47:55.718Z,1013.91
2019-02-05T04:48:55.789Z,1013.89
2019-02-05T04:50:55.788Z,1013.91
2019-02-05T04:51:55.791Z,1013.92
2019-02-05T04:52:55.803Z,1013.91
2019-02-05T04:53:55.739Z,1013.91
2019-02-05T04:54:55.739Z,1013.91
2019-02-05T04:55:55.709Z,1013.93
2019-02-05T04:56:55.707Z,1013.94
2019-02-05T04:57:59.152Z,1013.96
2019-02-05T04:58:55.712Z,1013.99
2019-02-05T04:59:55.685Z,1014.01
2019-02-05T05:00:55.752Z,1014.00
2019-02-05T05:01:55.757Z,1014.03
2019-02-05T05:02:55.699Z,1013.96
2019-02-05T05:03:55.852Z,1013.96
2019-02-05T05:04:55.726Z,1013.95
2019-02-05T05:05:55.745Z,1013.98
2019-02-05T05:06:55.801Z,1013.97
2019-02-05T05:07:55.730Z,1013.97
2019-02-05T05:08:55.807Z,1013.96
2019-02-05T05:09:55.730Z,1013.96
2019-02-05T05:10:55.796Z,1013.92
2019-02-05T05:11:55.732Z,1013.92
2019-02-05T05:12:55.808Z,1013.91
2019-02-05T05:13:55.747Z,1013.96
2019-02-05T05:14:55.736Z,1013.90
2019-02-05T05:15:55.738Z,1013.93
2019-02-05T05:16:55.813Z,1013.90
2019-02-05T05:17:55.766Z,1013.94
2019-02-05T05:18:55.736Z,1013.93
2019-02-05T05:19:55.703Z,1013.95
2019-02-05T05:20:55.797Z,1013.96
2019-02-05T05:21:55.748Z,1013.95
2019-02-05T05:22:55.819Z,1013.95
2019-02-05T05:23:55.708Z,1013.92
2019-02-05T05:24:55.702Z,1013.95
2019-02-05T05:25:55.775Z,1013.90
2019-02-05T05:26:55.806Z,1013.93
2019-02-05T05:27:55.790Z,1013.97
2019-02-05T05:28:55.802Z,1014.00
2019-02-05T05:29:55.816Z,1013.99
2019-02-05T05:30:55.725Z,1014.02
2019-02-05T05:31:55.759Z,1014.02
2019-02-05T05:32:55.719Z,1014.00
2019-02-05T05:33:55.743Z,1013.99
2019-02-05T05:34:55.810Z,1013.98
2019-02-05T05:35:55.745Z,1014.05
2019-02-05T05:36:55.871Z,1014.06
2019-02-05T05:37:55.812Z,1014.06
2019-02-05T05:38:55.739Z,1013.98
2019-02-05T05:39:55.814Z,1013.97
2019-02-05T05:40:55.743Z,1013.99
2019-02-05T05:41:55.896Z,1013.99
2019-02-05T05:42:55.743Z,1014.01
2019-02-05T05:43:55.828Z,1014.00
2019-02-05T05:44:55.831Z,1014.01
2019-02-05T05:45:55.761Z,1013.98
2019-02-05T05:46:55.795Z,1014.01
2019-02-05T05:47:55.834Z,1014.03
2019-02-05T05:48:55.761Z,1014.00
2019-02-05T05:49:55.839Z,1014.00
2019-02-05T05:50:55.762Z,1014.07
2019-02-05T05:51:55.771Z,1014.07
2019-02-05T05:52:55.762Z,1014.12
2019-02-05T05:53:55.758Z,1014.08
2019-02-05T05:54:55.785Z,1014.11
2019-02-05T05:55:55.824Z,1014.15
2019-02-05T05:56:55.763Z,1014.14
2019-02-05T05:57:55.771Z,1014.12
2019-02-05T05:58:55.841Z,1014.11
2019-02-05T05:59:55.818Z,1014.13
2019-02-05T06:00:55.734Z,1014.11
2019-02-05T06:01:55.784Z,1014.14
2019-02-05T06:02:55.853Z,1014.11
2019-02-05T06:03:55.697Z,1014.11
2019-02-05T06:04:55.805Z,1014.13
2019-02-05T06:05:55.758Z,1014.12
2019-02-05T06:06:55.693Z,1014.11
2019-02-05T06:07:55.774Z,1014.10
2019-02-05T06:08:55.694Z,1014.10
2019-02-05T06:09:55.811Z,1014.11
2019-02-05T06:10:55.714Z,1014.05
2019-02-05T06:11:55.726Z,1014.14
2019-02-05T06:12:55.770Z,1014.10
2019-02-05T06:13:55.776Z,1014.13
2019-02-05T06:14:55.849Z,1014.16
2019-02-05T06:15:55.779Z,1014.18
2019-02-05T06:16:55.779Z,1014.19
2019-02-05T06:17:55.855Z,1014.21
2019-02-05T06:18:55.781Z,1014.25
2019-02-05T06:20:55.860Z,1014.25
2019-02-05T06:21:55.854Z,1014.24
2019-02-05T06:22:55.852Z,1014.26
2019-02-05T06:23:55.764Z,1014.29
2019-02-05T06:24:55.858Z,1014.30
2019-02-05T06:25:55.858Z,1014.30
2019-02-05T06:26:55.772Z,1014.34
2019-02-05T06:27:55.776Z,1014.36
2019-02-05T06:28:55.854Z,1014.34
2019-02-05T06:29:55.771Z,1014.33
2019-02-05T06:30:55.849Z,1014.42
2019-02-05T06:31:55.781Z,1014.38
2019-02-05T06:32:55.848Z,1014.40
2019-02-05T06:33:55.872Z,1014.45
2019-02-05T06:34:55.856Z,1014.41
2019-02-05T06:35:55.777Z,1014.46
2019-02-05T06:36:55.789Z,1014.51
2019-02-05T06:37:55.777Z,1014.50
2019-02-05T06:38:55.861Z,1014.50
2019-02-05T06:39:55.779Z,1014.50
2019-02-05T06:40:55.783Z,1014.53
2019-02-05T06:41:55.858Z,1014.49
2019-02-05T06:42:55.784Z,1014.51
2019-02-05T06:43:55.878Z,1014.56
2019-02-05T06:44:55.880Z,1014.55
2019-02-05T06:45:55.871Z,1014.57
2019-02-05T06:46:55.846Z,1014.56
2019-02-05T06:47:55.931Z,1014.60
2019-02-05T06:48:55.819Z,1014.59
2019-02-05T06:49:55.806Z,1014.56
2019-02-05T06:50:56.929Z,1014.56
2019-02-05T06:51:55.811Z,1014.58
2019-02-05T06:52:55.878Z,1014.57
2019-02-05T06:53:55.742Z,1014.54
2019-02-05T06:54:55.764Z,1014.55
2019-02-05T06:55:55.810Z,1014.57
2019-02-05T06:56:55.814Z,1014.54
2019-02-05T06:57:55.861Z,1014.57
2019-02-05T06:58:55.867Z,1014.64
2019-02-05T06:59:55.743Z,1014.64
2019-02-05T07:00:55.913Z,1014.64
2019-02-05T07:01:55.924Z,1014.61
2019-02-05T07:02:55.747Z,1014.71
2019-02-05T07:03:55.878Z,1014.74
2019-02-05T07:04:55.887Z,1014.73
2019-02-05T07:05:55.875Z,1014.79
2019-02-05T07:06:55.875Z,1014.79
2019-02-05T07:07:55.876Z,1014.84
2019-02-05T07:08:55.797Z,1014.91
2019-02-05T07:09:55.887Z,1014.93
2019-02-05T07:10:55.877Z,1014.96
2019-02-05T07:11:55.815Z,1014.96
2019-02-05T07:12:55.877Z,1014.95
2019-02-05T07:13:58.153Z,1014.95
2019-02-05T07:14:55.834Z,1014.97
2019-02-05T07:15:55.819Z,1014.98
2019-02-05T07:16:55.819Z,1014.97
2019-02-05T07:17:55.897Z,1014.95
2019-02-05T07:18:55.909Z,1014.92
2019-02-05T07:19:55.958Z,1014.98
2019-02-05T07:20:55.822Z,1014.98
2019-02-05T07:21:55.899Z,1014.97
2019-02-05T07:22:55.958Z,1015.00
2019-02-05T07:23:55.826Z,1015.01
2019-02-05T07:24:55.787Z,1014.99
2019-02-05T07:25:55.827Z,1015.00
2019-02-05T07:26:55.898Z,1015.06
2019-02-05T07:27:55.908Z,1015.01
2019-02-05T07:28:58.904Z,1015.00
2019-02-05T07:29:55.904Z,1014.99
2019-02-05T07:30:55.910Z,1015.07
2019-02-05T07:31:55.908Z,1015.10
2019-02-05T07:32:55.862Z,1015.08
2019-02-05T07:33:55.833Z,1015.07
2019-02-05T07:34:55.863Z,1015.10
2019-02-05T07:35:55.843Z,1015.15
2019-02-05T07:36:55.833Z,1015.14
2019-02-05T07:37:55.958Z,1015.12
2019-02-05T07:38:55.906Z,1015.09
2019-02-05T07:39:55.836Z,1015.11
2019-02-05T07:40:55.923Z,1015.13
2019-02-05T07:41:55.835Z,1015.10
2019-02-05T07:42:55.913Z,1015.11
2019-02-05T07:43:55.840Z,1015.13
2019-02-05T07:44:55.911Z,1015.14
2019-02-05T07:45:55.872Z,1015.17
2019-02-05T07:46:55.844Z,1015.17
2019-02-05T07:47:55.849Z,1015.20
2019-02-05T07:48:55.914Z,1015.20
2019-02-05T07:49:55.873Z,1015.19
2019-02-05T07:50:55.853Z,1015.20
2019-02-05T07:51:55.912Z,1015.19
2019-02-05T07:52:55.846Z,1015.24
2019-02-05T07:53:55.766Z,1015.21
2019-02-05T07:54:55.981Z,1015.23
2019-02-05T07:55:55.775Z,1015.22
2019-02-05T07:56:55.773Z,1015.20
2019-02-05T07:57:55.839Z,1015.18
2019-02-05T07:58:55.883Z,1015.22
2019-02-05T07:59:55.847Z,1015.24
2019-02-05T08:00:55.800Z,1015.27
2019-02-05T08:01:55.872Z,1015.28
2019-02-05T08:02:55.894Z,1015.27
2019-02-05T08:03:55.866Z,1015.29
2019-02-05T08:04:55.922Z,1015.29
2019-02-05T08:05:55.850Z,1015.30
2019-02-05T08:06:56.013Z,1015.31
2019-02-05T08:07:55.856Z,1015.32
2019-02-05T08:08:55.934Z,1015.34
2019-02-05T08:09:55.859Z,1015.37
2019-02-05T08:10:55.858Z,1015.34
2019-02-05T08:11:55.844Z,1015.35
2019-02-05T08:12:55.928Z,1015.36
2019-02-05T08:13:55.822Z,1015.37
2019-02-05T08:14:55.860Z,1015.35
2019-02-05T08:15:55.862Z,1015.36
2019-02-05T08:16:55.876Z,1015.33
2019-02-05T08:17:55.861Z,1015.39
2019-02-05T08:18:55.864Z,1015.38
2019-02-05T08:19:55.867Z,1015.43
2019-02-05T08:20:55.939Z,1015.39
2019-02-05T08:21:55.878Z,1015.39
2019-02-05T08:22:56.046Z,1015.38
2019-02-05T08:23:55.871Z,1015.37
2019-02-05T08:24:55.946Z,1015.39
2019-02-05T08:25:55.879Z,1015.41
2019-02-05T08:26:55.832Z,1015.40
2019-02-05T08:27:55.938Z,1015.44
2019-02-05T08:28:55.896Z,1015.44
2019-02-05T08:29:56.036Z,1015.44
2019-02-05T08:30:55.874Z,1015.45
2019-02-05T08:31:55.943Z,1015.47
2019-02-05T08:32:55.986Z,1015.51
2019-02-05T08:33:55.952Z,1015.54
2019-02-05T08:34:55.891Z,1015.53
2019-02-05T08:35:55.963Z,1015.57
2019-02-05T08:36:55.942Z,1015.57
2019-02-05T08:37:55.899Z,1015.59
2019-02-05T08:38:55.949Z,1015.61
2019-02-05T08:39:55.883Z,1015.58
2019-02-05T08:40:55.947Z,1015.58
2019-02-05T08:41:55.876Z,1015.62
2019-02-05T08:42:55.953Z,1015.61
2019-02-05T08:43:55.890Z,1015.59
2019-02-05T08:44:55.854Z,1015.56
2019-02-05T08:45:56.979Z,1015.60
2019-02-05T08:46:55.938Z,1015.57
2019-02-05T08:47:55.944Z,1015.55
2019-02-05T08:48:55.944Z,1015.54
2019-02-05T08:49:55.942Z,1015.57
2019-02-05T08:50:55.943Z,1015.63
2019-02-05T08:51:55.893Z,1015.61
2019-02-05T08:52:55.948Z,1015.62
2019-02-05T08:53:55.951Z,1015.57
2019-02-05T08:54:55.961Z,1015.58
2019-02-05T08:55:55.891Z,1015.65
2019-02-05T08:56:55.968Z,1015.61
2019-02-05T08:57:55.967Z,1015.62
2019-02-05T08:58:55.890Z,1015.60
2019-02-05T08:59:55.906Z,1015.60
2019-02-05T09:00:55.892Z,1015.67
2019-02-05T09:01:55.891Z,1015.68
2019-02-05T09:02:55.904Z,1015.70
2019-02-05T09:03:55.905Z,1015.74
2019-02-05T09:04:55.896Z,1015.73
2019-02-05T09:05:55.964Z,1015.75
2019-02-05T09:06:55.971Z,1015.82
2019-02-05T09:07:55.898Z,1015.81
2019-02-05T09:08:55.903Z,1015.85
2019-02-05T09:09:55.898Z,1015.85
2019-02-05T09:10:55.968Z,1015.90
2019-02-05T09:11:56.023Z,1015.90
2019-02-05T09:12:55.902Z,1015.87
2019-02-05T09:13:55.981Z,1015.91
2019-02-05T09:14:55.902Z,1015.92
2019-02-05T09:15:55.981Z,1015.91
2019-02-05T09:16:55.908Z,1015.95
2019-02-05T09:17:55.904Z,1015.95
2019-02-05T09:18:55.979Z,1015.96
2019-02-05T09:19:55.977Z,1016.00
2019-02-05T09:20:55.907Z,1016.00
2019-02-05T09:21:55.983Z,1015.99
2019-02-05T09:22:55.908Z,1016.00
2019-02-05T09:23:55.974Z,1016.02
2019-02-05T09:24:55.909Z,1016.00
2019-02-05T09:25:55.981Z,1016.04
2019-02-05T09:26:55.981Z,1016.05
2019-02-05T09:27:55.977Z,1016.07
2019-02-05T09:28:55.921Z,1016.08
2019-02-05T09:29:55.982Z,1016.10
2019-02-05T09:30:55.913Z,1016.07
2019-02-05T09:31:55.984Z,1016.08
2019-02-05T09:32:55.985Z,1016.11
2019-02-05T09:33:55.995Z,1016.08
2019-02-05T09:34:55.919Z,1016.08
2019-02-05T09:35:56.008Z,1016.09
2019-02-05T09:36:55.994Z,1016.11
2019-02-05T09:37:57.820Z,1016.12
2019-02-05T09:38:55.999Z,1016.13
2019-02-05T09:39:55.921Z,1016.16
2019-02-05T09:40:55.986Z,1016.18
2019-02-05T09:41:55.924Z,1016.21
2019-02-05T09:42:55.993Z,1016.18
2019-02-05T09:43:55.923Z,1016.20
2019-02-05T09:44:55.986Z,1016.24
2019-02-05T09:45:56.003Z,1016.22
2019-02-05T09:46:55.933Z,1016.27
2019-02-05T09:47:55.996Z,1016.24
2019-02-05T09:48:55.929Z,1016.24
2019-02-05T09:49:56.001Z,1016.22
2019-02-05T09:50:55.990Z,1016.25
2019-02-05T09:51:55.923Z,1016.24
2019-02-05T09:52:55.926Z,1016.28
2019-02-05T09:53:56.002Z,1016.27
2019-02-05T09:54:55.930Z,1016.25
2019-02-05T09:55:56.005Z,1016.27
2019-02-05T09:56:55.966Z,1016.28
2019-02-05T09:57:55.929Z,1016.29
2019-02-05T09:58:56.001Z,1016.26
2019-02-05T10:00:56.005Z,1016.24
2019-02-05T10:02:56.004Z,1016.25
2019-02-05T10:03:55.936Z,1016.23
2019-02-05T10:04:55.821Z,1016.20
2019-02-05T10:05:55.968Z,1016.24
2019-02-05T10:06:55.894Z,1016.22
2019-02-05T10:07:55.922Z,1016.23
2019-02-05T10:08:55.943Z,1016.27
2019-02-05T10:09:55.937Z,1016.27
2019-02-05T10:10:55.823Z,1016.23
2019-02-05T10:11:55.858Z,1016.25
2019-02-05T10:12:55.929Z,1016.21
2019-02-05T10:13:56.011Z,1016.21
2019-02-05T10:14:55.950Z,1016.22
2019-02-05T10:15:55.927Z,1016.29
2019-02-05T10:16:55.869Z,1016.31
2019-02-05T10:17:55.874Z,1016.29
2019-02-05T10:18:55.870Z,1016.31
2019-02-05T10:19:55.980Z,1016.32
2019-02-05T10:20:55.878Z,1016.30
2019-02-05T10:21:55.871Z,1016.35
2019-02-05T10:22:55.956Z,1016.36
2019-02-05T10:23:55.934Z,1016.36
2019-02-05T10:24:55.953Z,1016.35
2019-02-05T10:25:56.018Z,1016.36
2019-02-05T10:26:55.958Z,1016.35
2019-02-05T10:27:56.037Z,1016.37
2019-02-05T10:28:55.956Z,1016.35
2019-02-05T10:29:59.449Z,1016.35
2019-02-05T10:30:55.972Z,1016.32
2019-02-05T10:31:55.955Z,1016.33
2019-02-05T10:32:56.022Z,1016.32
2019-02-05T10:33:56.027Z,1016.38
2019-02-05T10:34:56.017Z,1016.38
2019-02-05T10:35:56.020Z,1016.42
2019-02-05T10:36:55.955Z,1016.43
2019-02-05T10:37:55.932Z,1016.49
2019-02-05T10:38:55.951Z,1016.44
2019-02-05T10:39:56.018Z,1016.48
2019-02-05T10:40:56.021Z,1016.45
2019-02-05T10:41:55.985Z,1016.45
2019-02-05T10:42:56.023Z,1016.48
2019-02-05T10:43:56.021Z,1016.43
2019-02-05T10:44:56.021Z,1016.47
2019-02-05T10:45:55.979Z,1016.52
2019-02-05T10:46:56.016Z,1016.46
2019-02-05T10:47:55.941Z,1016.45
2019-02-05T10:48:55.915Z,1016.44
2019-02-05T10:49:55.926Z,1016.47
2019-02-05T10:50:56.028Z,1016.47
2019-02-05T10:51:55.907Z,1016.42
2019-02-05T10:52:55.933Z,1016.39
2019-02-05T10:53:56.015Z,1016.39
2019-02-05T10:54:55.931Z,1016.37
2019-02-05T10:55:55.960Z,1016.43
2019-02-05T10:56:55.993Z,1016.44
2019-02-05T10:57:56.000Z,1016.41
2019-02-05T10:58:55.896Z,1016.43
2019-02-05T10:59:55.989Z,1016.37
2019-02-05T11:00:55.963Z,1016.38
2019-02-05T11:01:55.961Z,1016.38
2019-02-05T11:02:55.992Z,1016.36
2019-02-05T11:03:55.900Z,1016.35
2019-02-05T11:04:56.055Z,1016.37
2019-02-05T11:05:55.998Z,1016.36
2019-02-05T11:06:55.944Z,1016.37
2019-02-05T11:07:55.980Z,1016.32
2019-02-05T11:08:55.988Z,1016.40
2019-02-05T11:09:56.055Z,1016.37
2019-02-05T11:10:56.055Z,1016.40
2019-02-05T11:11:55.988Z,1016.37
2019-02-05T11:12:55.982Z,1016.40
2019-02-05T11:13:56.065Z,1016.39
2019-02-05T11:14:55.989Z,1016.42
2019-02-05T11:15:55.990Z,1016.43
2019-02-05T11:16:56.060Z,1016.40
2019-02-05T11:17:56.001Z,1016.39
2019-02-05T11:18:56.004Z,1016.39
2019-02-05T11:19:56.063Z,1016.41
2019-02-05T11:20:56.001Z,1016.38
2019-02-05T11:21:56.067Z,1016.38
2019-02-05T11:22:56.068Z,1016.37
2019-02-05T11:23:55.988Z,1016.41
2019-02-05T11:24:55.993Z,1016.37
2019-02-05T11:25:56.066Z,1016.36
2019-02-05T11:26:56.073Z,1016.40
2019-02-05T11:27:55.996Z,1016.44
2019-02-05T11:28:55.998Z,1016.42
2019-02-05T11:29:55.998Z,1016.42
2019-02-05T11:30:56.000Z,1016.40
2019-02-05T11:31:56.158Z,1016.48
2019-02-05T11:32:56.069Z,1016.38
2019-02-05T11:33:56.000Z,1016.36
2019-02-05T11:34:55.946Z,1016.37
2019-02-05T11:35:56.002Z,1016.34
2019-02-05T11:36:56.012Z,1016.31
2019-02-05T11:37:56.006Z,1016.30
2019-02-05T11:38:55.942Z,1016.30
2019-02-05T11:39:55.952Z,1016.30
2019-02-05T11:40:56.013Z,1016.28
2019-02-05T11:41:56.004Z,1016.34
2019-02-05T11:42:56.057Z,1016.34
2019-02-05T11:43:56.011Z,1016.31
2019-02-05T11:44:55.972Z,1016.30
2019-02-05T11:45:56.070Z,1016.35
2019-02-05T11:46:55.993Z,1016.34
2019-02-05T11:47:56.071Z,1016.33
2019-02-05T11:48:56.070Z,1016.36
2019-02-05T11:49:56.005Z,1016.32
2019-02-05T11:50:55.973Z,1016.32
2019-02-05T11:51:56.017Z,1016.34
2019-02-05T11:52:56.085Z,1016.30
2019-02-05T11:53:56.070Z,1016.30
2019-02-05T11:54:55.988Z,1016.31
2019-02-05T11:55:55.975Z,1016.27
2019-02-05T11:56:55.988Z,1016.30
2019-02-05T11:57:56.067Z,1016.28
2019-02-05T11:58:56.070Z,1016.26
2019-02-05T11:59:56.076Z,1016.24
2019-02-05T12:00:55.990Z,1016.21
2019-02-05T12:01:56.070Z,1016.21
2019-02-05T12:02:56.077Z,1016.18
2019-02-05T12:03:56.145Z,1016.20
2019-02-05T12:04:56.023Z,1016.17
2019-02-05T12:05:56.093Z,1016.20
2019-02-05T12:06:56.045Z,1016.18
2019-02-05T12:07:56.042Z,1016.13
2019-02-05T12:08:56.025Z,1016.17
2019-02-05T12:09:56.099Z,1016.14
2019-02-05T12:10:56.053Z,1016.18